Texas Logo

Southwest, TX Single Family Real Estate Listings

2217 Total Real Estate Listings * Click on table heading to sort
Date Posted Property Type Style Address Price Living Area Lot Size Price/Sq Ft.
2018-02-20 Single Family Contemporary/Modern; Traditional 7003 Bryton Park Drive Houston, TX 77083 $182,000 1,604 sq. ft. 7,405 sq. ft. $113
2018-02-20 Single Family Traditional 14011 Briarworth Drive Houston, TX 77077 $195,000 1,853 sq. ft. 8,276 sq. ft. $105
2018-02-19 Single Family Traditional 8806 Dairy Ashford Road Houston, TX 77099 $159,000 1,497 sq. ft. 7,841 sq. ft. $106
2018-02-19 Single Family Traditional 6834 Beechnut Street Houston, TX 77074 $146,996 1,675 sq. ft. 8,276 sq. ft. $88
2018-02-19 Single Family Ranch 4730 Benning Drive Houston, TX 77035 $356,000 1,917 sq. ft. 6,970 sq. ft. $186
2018-02-19 Single Family Traditional 10910 Lewis Drive Houston, TX 77099 $284,900 3,030 sq. ft. 20,909 sq. ft. $94
2018-02-19 Single Family Contemporary/Modern 14111 Hillvalle Houston, TX 77077 $345,000 2,168 sq. ft. 5,663 sq. ft. $159
2018-02-19 Single Family Traditional 8903 Manhattan Drive Houston, TX 77096 $349,000 3,048 sq. ft. 11,326 sq. ft. $114
2018-02-19 Single Family Traditional 8438 Village Hollow Lane Houston, TX 77072 $220,000 2,576 sq. ft. 4,356 sq. ft. $85
2018-02-19 Single Family Traditional 4822 Dalmatian Drive Houston, TX 77045 $139,999 1,079 sq. ft. 6,970 sq. ft. $130
2018-02-19 Single Family Traditional 7819 Montilla Court Houston, TX 77083 $248,000 2,896 sq. ft. 6,970 sq. ft. $86
2018-02-19 Single Family Traditional 5003 Lymbar Drive Houston, TX 77096 $414,000 1,794 sq. ft. 10,454 sq. ft. $231
2018-02-19 Single Family Traditional 6931 Sharpview Drive Houston, TX 77074 $195,000 1,137 sq. ft. 8,712 sq. ft. $172
2018-02-19 Single Family Traditional 5427 Kinglet Street Houston, TX 77096 $349,500 1,817 sq. ft. 8,276 sq. ft. $192
2018-02-19 Single Family Traditional 12243 Gladewick Drive Houston, TX 77077 $379,000 2,766 sq. ft. 10,890 sq. ft. $137
2018-02-19 Single Family Traditional 10619 Lynbrook Drive Houston, TX 77042 $415,000 2,081 sq. ft. 10,019 sq. ft. $199
2018-02-19 Single Family Traditional 5306 Indigo Street Houston, TX 77096 $439,900 2,370 sq. ft. 7,841 sq. ft. $186
2018-02-19 Single Family Traditional 5829 Reamer Street Houston, TX 77074 $335,000 2,472 sq. ft. 15,246 sq. ft. $136
2018-02-19 Single Family Traditional 12507 Ella Lee Lane Houston, TX 77077 $174,900 2,040 sq. ft. 6,970 sq. ft. $86
2018-02-19 Single Family Ranch 6015 Beaudry Drive Houston, TX 77035 $264,000 2,063 sq. ft. 9,583 sq. ft. $128
2018-02-18 Single Family Traditional 5718 Greencraig Drive Houston, TX 77035 $189,995 1,312 sq. ft. 7,405 sq. ft. $145
2018-02-18 Single Family Traditional 10523 Adamsborough Drive Houston, TX 77099 $135,000 1,706 sq. ft. 6,970 sq. ft. $79
2018-02-18 Single Family Traditional 8219 Cliffshire Court Houston, TX 77083 $185,000 2,430 sq. ft. 7,405 sq. ft. $76
2018-02-18 Single Family Traditional 5618 Ludington Drive Houston, TX 77035 $300,000 2,359 sq. ft. 8,276 sq. ft. $127
2018-02-18 Single Family Traditional 5018 Ingomar Way Houston, TX 77053 $124,900 1,325 sq. ft. $94
2018-02-17 Single Family Traditional 5139 Porter Ridge Drive Houston, TX 77053 $107,000 1,221 sq. ft. 6,534 sq. ft. $88
2018-02-17 Single Family Traditional 5502 Dawnridge Drive Houston, TX 77035 $290,000 1,873 sq. ft. 9,148 sq. ft. $155
2018-02-17 Single Family Traditional 5507 Dawnridge Drive Houston, TX 77035 $320,000 2,458 sq. ft. 8,712 sq. ft. $130
2018-02-17 Single Family Colonial 1106 Crossroads Drive Houston, TX 77079 $430,000 4,263 sq. ft. 8,712 sq. ft. $101
2018-02-17 Single Family Other Style 12319 Windjammer Street Houston, TX 77072 $126,999 1,277 sq. ft. 2,614 sq. ft. $99
2018-02-17 Single Family Traditional 15730 Edo Circle Houston, TX 77083 $223,900 2,075 sq. ft. 5,663 sq. ft. $108
2018-02-17 Single Family Traditional 14719 Stanbridge Drive Houston, TX 77083 $204,900 1,938 sq. ft. 7,405 sq. ft. $106
2018-02-16 Single Family Traditional 10302 Bob White Drive Houston, TX 77096 $328,700 2,052 sq. ft. 8,712 sq. ft. $160
2018-02-16 Single Family Traditional 6219 Sutherland Square Houston, TX 77081 $449,000 2,527 sq. ft. 2,614 sq. ft. $178
2018-02-16 Single Family Traditional 6327 Cambridge Glen Lane Houston, TX 77035 $1,100 1,332 sq. ft. 4,792 sq. ft. $1
2018-02-16 Single Family Contemporary/Modern 12635 Ashford Shore Drive Houston, TX 77072 $207,000 1,892 sq. ft. 2,178 sq. ft. $109
2018-02-16 Single Family Traditional 14119 Hillvale Drive Houston, TX 77077 $312,000 2,230 sq. ft. 10,890 sq. ft. $140
2018-02-16 Single Family Traditional 3234 Ashton Park Drive Houston, TX 77082 $250,000 2,495 sq. ft. 7,405 sq. ft. $100
2018-02-16 Single Family Traditional 7722 Skyline Drive Houston, TX 77063 $429,000 2,077 sq. ft. 9,583 sq. ft. $207
2018-02-16 Single Family Ranch; Traditional 5050 Glenmeadow Drive Houston, TX 77096 $290,000 3,076 sq. ft. 13,068 sq. ft. $94
2018-02-16 Single Family Traditional 14702 El Grande Drive Houston, TX 77083 $199,999 2,577 sq. ft. 6,970 sq. ft. $78
2018-02-16 Single Family Traditional 14323 Royal Hill Drive Houston, TX 77083 $192,500 1,938 sq. ft. 6,970 sq. ft. $99
2018-02-16 Single Family Traditional 3023 Brookston St Houston, TX 77045 $89,000 855 sq. ft. 5,227 sq. ft. $104
2018-02-16 Single Family Traditional 14951 Camino Rancho Drive Houston, TX 77083 $250,000 2,660 sq. ft. 8,712 sq. ft. $94
2018-02-16 Single Family Traditional 1311 Brooklake Drive Houston, TX 77077 $335,000 3,423 sq. ft. 9,583 sq. ft. $98
2018-02-16 Single Family Traditional 1003 Cranberry Hill Drive Houston, TX 77079 $261,000 3,068 sq. ft. 6,970 sq. ft. $85
2018-02-16 Single Family Traditional 7633 Belle Park Drive Houston, TX 77072 $179,900 1,947 sq. ft. 6,970 sq. ft. $92
2018-02-16 Single Family Traditional 5022 Heatherglen Houston, TX 77096 $319,990 3,189 sq. ft. 12,197 sq. ft. $100
2018-02-16 Single Family Traditional 8814 Brookwulf Drive Houston, TX 77099 $185,000 2,245 sq. ft. 7,405 sq. ft. $82
2018-02-16 Single Family Contemporary/Modern 14003 Briarworth Houston, TX 77077 $232,500 2,070 sq. ft. $112
2018-02-16 Single Family Traditional 7114 Belle Glen Drive Houston, TX 77072 $180,000 2,008 sq. ft. 7,405 sq. ft. $90
2018-02-16 Single Family Traditional 12335 Mullins Drive Houston, TX 77035 $239,900 1,996 sq. ft. 9,148 sq. ft. $120
2018-02-16 Single Family Traditional 4795 Beechaven Street Houston, TX 77053 $125,000 1,428 sq. ft. 7,841 sq. ft. $88
2018-02-15 Single Family Traditional 6231 Queensloch Drive Houston, TX 77096 $499,000 2,799 sq. ft. 8,712 sq. ft. $178
2018-02-15 Single Family Traditional 9414 Clipperwood Place Houston, TX 77083 $175,000 1,669 sq. ft. 6,098 sq. ft. $105
2018-02-15 Single Family Traditional 10702 Valley Forge Drive Houston, TX 77042 $347,500 2,133 sq. ft. 9,148 sq. ft. $163
2018-02-15 Single Family Traditional 8419 Antietam Lane Houston, TX 77083 $184,500 2,256 sq. ft. 5,663 sq. ft. $82
2018-02-15 Single Family Traditional 1911 Fantasy Woods Drive Houston, TX 77094 $253,000 2,098 sq. ft. 5,663 sq. ft. $121
2018-02-15 Single Family Other Style 6831 Addicks Clodine Road Houston, TX 77083 $195,000 1,841 sq. ft. 8,712 sq. ft. $106
2018-02-15 Single Family Ranch 12019 Waldemar Drive Houston, TX 77077 $275,000 1,930 sq. ft. 8,276 sq. ft. $142
2018-02-15 Single Family Traditional 10042 Inwood Drive Houston, TX 77042 $499,000 2,151 sq. ft. 9,148 sq. ft. $232
2018-02-15 Single Family Traditional 11531 Willwood Drive Houston, TX 77072 $125,000 1,778 sq. ft. 3,920 sq. ft. $70
2018-02-15 Single Family Traditional 2807 Hilmar Houston, TX 77082 $466,569 2,032 sq. ft. 2,178 sq. ft. $230
2018-02-15 Single Family Traditional 15015 Kingsbridge Way Houston, TX 77083 $147,500 1,175 sq. ft. 5,227 sq. ft. $126
2018-02-15 Single Family Traditional 6234 Queensloch Drive Houston, TX 77096 $399,000 2,157 sq. ft. 8,712 sq. ft. $185
2018-02-15 Single Family Traditional 7515 San Benito Drive Houston, TX 77083 $174,900 2,115 sq. ft. 4,792 sq. ft. $83
2018-02-15 Single Family Traditional 12811 Ashford Meadow Drive Houston, TX 77082 $199,900 2,029 sq. ft. 4,792 sq. ft. $99
2018-02-15 Single Family Traditional 13814 Audra Lane Houston, TX 77083 $217,700 1,814 sq. ft. 5,227 sq. ft. $120
2018-02-15 Single Family Traditional 11218 Bandlon Drive Houston, TX 77072 $159,000 1,456 sq. ft. 4,792 sq. ft. $109
2018-02-15 Single Family Traditional 3215 Wuthering Heights Drive Houston, TX 77045 $134,900 1,624 sq. ft. 5,227 sq. ft. $83
2018-02-14 Single Family Contemporary/Modern 7923 Braesdale Lane Houston, TX 77071 $315,000 2,295 sq. ft. 9,148 sq. ft. $137
2018-02-14 Single Family Traditional 7907 Rowan Lane Houston, TX 77036 $269,999 2,261 sq. ft. 8,712 sq. ft. $119
2018-02-14 Single Family Traditional 9254 Eaglewood Glen Trail Houston, TX 77083 $229,000 2,628 sq. ft. 6,098 sq. ft. $87
2018-02-14 Single Family Traditional 19710 Morning Brook Lane Houston, TX 77094 $425,000 4,112 sq. ft. 9,583 sq. ft. $103
2018-02-14 Single Family Traditional 12007 High Star Drive Houston, TX 77072 $150,000 1,724 sq. ft. 9,148 sq. ft. $87
2018-02-14 Single Family Traditional 8119 Leader Street Houston, TX 77036 $238,900 1,753 sq. ft. 9,583 sq. ft. $136
2018-02-14 Single Family Traditional 5342 Pagewood Lane Houston, TX 77056 $460,000 1,941 sq. ft. 8,276 sq. ft. $237
2018-02-14 Single Family Traditional 6207 Dumfries Drive Houston, TX 77096 $267,000 2,031 sq. ft. 8,276 sq. ft. $131
2018-02-14 Single Family Contemporary/Modern 9009 Gabriel Street Houston, TX 77063 $200,000 1,135 sq. ft. 5,227 sq. ft. $176
2018-02-14 Single Family Traditional 4619 Omeara Drive Houston, TX 77035 $325,000 2,702 sq. ft. 10,890 sq. ft. $120
2018-02-14 Single Family Traditional 14207 Swanfield Drive Houston, TX 77083 $180,000 2,168 sq. ft. 8,276 sq. ft. $83
2018-02-14 Single Family Traditional 5443 Jackwood Street Houston, TX 77096 $499,000 2,181 sq. ft. 9,148 sq. ft. $229
2018-02-14 Single Family Traditional 2118 Briarstem Houston, TX 77077 $299,000 2,510 sq. ft. 8,712 sq. ft. $119
2018-02-14 Single Family Ranch 8222 Albacore Drive Houston, TX 77074 $129,000 1,495 sq. ft. 7,405 sq. ft. $86
2018-02-14 Single Family Ranch 5239 Caversham Drive Houston, TX 77096 $349,000 3,066 sq. ft. 11,761 sq. ft. $114
2018-02-14 Single Family Traditional 2210 Foreland Drive Houston, TX 77077 $315,000 2,265 sq. ft. 9,148 sq. ft. $139
2018-02-13 Single Family Traditional 5471 Jason Street Houston, TX 77096 $260,000 2,385 sq. ft. 8,712 sq. ft. $109
2018-02-13 Single Family Traditional 10706 Tupper Lake Drive Houston, TX 77042 $276,500 2,305 sq. ft. 9,148 sq. ft. $120
2018-02-13 Single Family Colonial 7619 Braesglen Drive Houston, TX 77071 $184,000 2,290 sq. ft. 8,276 sq. ft. $80
2018-02-13 Single Family Traditional 5931 Arboles Drive Houston, TX 77035 $275,000 2,204 sq. ft. 8,276 sq. ft. $125
2018-02-13 Single Family Traditional 11858 Marianne Circle Houston, TX 77071 $159,000 1,711 sq. ft. 6,970 sq. ft. $93
2018-02-13 Single Family Traditional 12038 Spring Grove Drive Houston, TX 77099 $140,000 2,201 sq. ft. 6,534 sq. ft. $64
2018-02-13 Single Family Traditional 11907 Cedar Pass Drive Houston, TX 77077 $315,000 1,817 sq. ft. 9,148 sq. ft. $173
2018-02-13 Single Family Traditional 10138 Holly Chase Drive Houston, TX 77042 $405,000 3,288 sq. ft. 2,178 sq. ft. $123
2018-02-13 Single Family Traditional 5750 Cheena Drive Houston, TX 77096 $349,000 2,048 sq. ft. 8,276 sq. ft. $170
2018-02-13 Single Family Ranch 5421 Pagewood Lane Houston, TX 77056 $419,000 1,986 sq. ft. 8,276 sq. ft. $211
2018-02-13 Single Family Traditional 11202 Hendon Lane Houston, TX 77072 $134,900 1,801 sq. ft. 8,276 sq. ft. $75
2018-02-13 Single Family Traditional 10503 Cook Road Houston, TX 77099 $150,000 1,821 sq. ft. 7,405 sq. ft. $82
2018-02-13 Single Family Traditional 6109 Maywood Drive Houston, TX 77053 $96,000 1,013 sq. ft. 7,841 sq. ft. $95
2018-02-12 Single Family Traditional 5347 Queensloch Drive Houston, TX 77096 $310,000 2,367 sq. ft. 9,148 sq. ft. $131
2018-02-12 Single Family Traditional 19603 Auburn Meadows Drive Houston, TX 77094 $410,000 4,029 sq. ft. 10,454 sq. ft. $102
2018-02-12 Single Family Traditional 12419 Honeywood Trail Houston, TX 77077 $427,000 2,816 sq. ft. 10,454 sq. ft. $152
2018-02-12 Single Family Traditional 7915 Prestwood Drive Houston, TX 77036 $289,500 2,212 sq. ft. 14,810 sq. ft. $131
2018-02-12 Single Family Contemporary/Modern 5809 Willowbend Boulevard Houston, TX 77096 $250,000 2,121 sq. ft. $118
2018-02-12 Single Family Traditional 5750 Kuldell Drive Houston, TX 77096 $399,999 3,021 sq. ft. 8,712 sq. ft. $132
2018-02-12 Single Family Traditional 13006 Waldemere Drive Houston, TX 77077 $325,000 2,381 sq. ft. 9,583 sq. ft. $136
2018-02-12 Single Family Traditional 4402 Tonawanda Drive Houston, TX 77035 $245,000 1,975 sq. ft. 8,276 sq. ft. $124
2018-02-12 Single Family Ranch 12202 Braewick Drive Houston, TX 77035 $239,000 1,441 sq. ft. 8,276 sq. ft. $166
2018-02-11 Single Family Traditional 12323 Split Rail Lane Houston, TX 77071 $145,000 2,434 sq. ft. 6,098 sq. ft. $60
2018-02-11 Single Family Traditional 9510 Bob White Drive Houston, TX 77096 $379,000 2,092 sq. ft. 8,276 sq. ft. $181
2018-02-11 Single Family Traditional 14510 Basalt Lane Houston, TX 77077 $399,000 2,856 sq. ft. 3,485 sq. ft. $140
2018-02-11 Single Family Traditional 13830 Aldaco Drive Houston, TX 77045 $174,900 1,258 sq. ft. 4,356 sq. ft. $139
2018-02-11 Single Family Traditional 13927 Leabrandon Lane Houston, TX 77045 $174,900 1,258 sq. ft. 4,792 sq. ft. $139
2018-02-11 Single Family Traditional 13838 Aldaco Drive Houston, TX 77045 $174,900 1,258 sq. ft. 4,356 sq. ft. $139
2018-02-11 Single Family Traditional 11742 Spring Grove Drive Houston, TX 77099 $175,000 1,868 sq. ft. 5,663 sq. ft. $94
2018-02-10 Single Family Traditional 13910 Aldaco Drives Houston, TX 77045 $174,900 1,258 sq. ft. 4,356 sq. ft. $139
2018-02-10 Single Family Traditional 12343 Windjammer Street Houston, TX 77072 $130,500 1,882 sq. ft. 2,614 sq. ft. $69
2018-02-10 Single Family Traditional 6034 Lark Haven Lane Houston, TX 77085 $160,000 1,335 sq. ft. 5,227 sq. ft. $120
2018-02-10 Single Family Traditional 9410 Meaux Drive Houston, TX 77031 $240,000 2,702 sq. ft. 7,841 sq. ft. $89
2018-02-10 Single Family Traditional 1803 Woodland Springs Street Houston, TX 77077 $315,000 2,218 sq. ft. 9,583 sq. ft. $142
2018-02-10 Single Family Traditional 13842 Aldaco Drive Houston, TX 77045 $199,900 2,120 sq. ft. 4,356 sq. ft. $94
2018-02-10 Single Family Traditional 3115 Ashlock Drive Houston, TX 77082 $236,000 2,440 sq. ft. 7,405 sq. ft. $97
2018-02-10 Single Family Other Style 9025 Clarkcrest Street Houston, TX 77063 $275,000 1,242 sq. ft. 5,227 sq. ft. $221
2018-02-10 Single Family Traditional 10503 Leawood Boulevard Houston, TX 77099 $140,000 1,753 sq. ft. 7,841 sq. ft. $80
2018-02-10 Single Family Contemporary/Modern 12507 Seaswept Drive Houston, TX 77071 $105,000 1,432 sq. ft. 4,792 sq. ft. $73
2018-02-10 Single Family Traditional 14011 Briar Heath Drive Houston, TX 77077 $464,900 2,646 sq. ft. 7,841 sq. ft. $176
2018-02-10 Single Family Traditional 12746 Westella Drive Houston, TX 77077 $275,000 1,947 sq. ft. 7,841 sq. ft. $141
2018-02-10 Single Family Traditional 12325 Hodges Street Houston, TX 77085 $90,000 1,132 sq. ft. 31,363 sq. ft. $80
2018-02-09 Single Family Traditional 4030 Clayton Bend Court Houston, TX 77082 $168,800 1,761 sq. ft. 10,454 sq. ft. $96
2018-02-09 Single Family Traditional 6027 Cerritos Drive Houston, TX 77035 $245,000 2,053 sq. ft. 9,583 sq. ft. $119
2018-02-09 Single Family Traditional 12806 Sonoran Blue Way Houston, TX 77045 $174,900 1,754 sq. ft. 5,227 sq. ft. $100
2018-02-09 Single Family Traditional 12411 Windy Wisp Lane Houston, TX 77071 $160,000 2,129 sq. ft. 4,792 sq. ft. $75
2018-02-09 Single Family Contemporary/Modern 2014 Royal Landing Drive Houston, TX 77045 $355,547 2,234 sq. ft. 2,178 sq. ft. $159
2018-02-09 Single Family Ranch; Traditional 9910 Cliffwood Drive Houston, TX 77096 $259,000 2,081 sq. ft. 11,326 sq. ft. $124
2018-02-09 Single Family Contemporary/Modern 10922 Bob White Drive Houston, TX 77096 $204,371 2,455 sq. ft. 7,405 sq. ft. $83
2018-02-09 Single Family Traditional 5915 Nodaway Creek Court Houston, TX 77085 $209,490 1,893 sq. ft. 4,356 sq. ft. $111
2018-02-09 Single Family Ranch; Traditional 5130 Kingfisher Drive Houston, TX 77035 $349,900 1,875 sq. ft. 8,276 sq. ft. $187
2018-02-09 Single Family Contemporary/Modern 8426 Brompton Place Drive Houston, TX 77083 $230,000 3,572 sq. ft. 5,663 sq. ft. $64
2018-02-09 Single Family Traditional 5846 Braesheather Drive Houston, TX 77096 $399,900 2,462 sq. ft. 8,276 sq. ft. $162
2018-02-09 Single Family Ranch 5202 Redstart Street Houston, TX 77035 $395,000 2,441 sq. ft. 9,583 sq. ft. $162
2018-02-09 Single Family Traditional 11021 Greenwillow Street Houston, TX 77035 $325,000 1,728 sq. ft. 8,276 sq. ft. $188
2018-02-09 Single Family Traditional 10610 Riverview Drive Houston, TX 77042 $350,000 2,388 sq. ft. 10,019 sq. ft. $147
2018-02-09 Single Family Traditional 10622 Russett Drive Houston, TX 77042 $260,000 2,336 sq. ft. 10,019 sq. ft. $111
2018-02-09 Single Family Traditional 12406 Ella Lee Lane Houston, TX 77077 $350,000 2,307 sq. ft. 7,841 sq. ft. $152
2018-02-09 Single Family Traditional 8407 Brompton Place Drive Houston, TX 77083 $225,000 2,546 sq. ft. 10,019 sq. ft. $88
2018-02-09 Single Family Traditional 6630 Grandvale Drive Houston, TX 77072 $189,900 1,909 sq. ft. 4,356 sq. ft. $99
2018-02-09 Single Family Contemporary/Modern 8218 Golf Green Circle Houston, TX 77036 $220,000 2,078 sq. ft. 3,049 sq. ft. $106
2018-02-09 Single Family Traditional 10710 Burdine Street Houston, TX 77096 $380,000 1,800 sq. ft. 8,276 sq. ft. $211
2018-02-08 Single Family Ranch; Traditional 3407 Rockyridge Drive Houston, TX 77063 $282,500 1,710 sq. ft. 7,841 sq. ft. $165
2018-02-08 Single Family Contemporary/Modern 3008 Fairdale Estates Court Houston, TX 77057 $387,000 2,283 sq. ft. 1,307 sq. ft. $170
2018-02-08 Single Family Traditional 4411 Osby Drive Houston, TX 77096 $435,000 2,010 sq. ft. 9,583 sq. ft. $216
2018-02-08 Single Family Ranch 3302 Overcross Drive Houston, TX 77045 $85,000 1,099 sq. ft. 5,663 sq. ft. $77
2018-02-08 Single Family Colonial 11546 Bellerive Drive Houston, TX 77072 $155,000 1,558 sq. ft. 3,920 sq. ft. $99
2018-02-08 Single Family Traditional 5501 Lincrest Lane Houston, TX 77056 $399,000 1,985 sq. ft. 8,276 sq. ft. $201
2018-02-08 Single Family Traditional 14263 Playa Bend Lane Houston, TX 77083 $262,535 2,035 sq. ft. 3,485 sq. ft. $129
2018-02-08 Single Family Ranch; Traditional 5426 Ariel Street Houston, TX 77096 $445,000 2,504 sq. ft. 8,276 sq. ft. $178
2018-02-08 Single Family Traditional 14311 Chevy Chase Drive Houston, TX 77077 $274,900 2,922 sq. ft. 8,276 sq. ft. $94
2018-02-08 Single Family Traditional 6618 Sunrise Valley Lane Houston, TX 77083 $295,000 3,599 sq. ft. 7,405 sq. ft. $82
2018-02-08 Single Family Ranch; Traditional 4318 Wigton Drive Houston, TX 77096 $449,000 2,233 sq. ft. 9,148 sq. ft. $201
2018-02-08 Single Family Traditional 2115 Manor Green Drive Houston, TX 77077 $355,000 2,362 sq. ft. 8,276 sq. ft. $150
2018-02-08 Single Family Traditional 18127 Brookes Bend Houston, TX 77094 $379,000 2,571 sq. ft. 6,534 sq. ft. $147
2018-02-08 Single Family Traditional 14259 Playa Bend Lane Houston, TX 77083 $263,715 2,217 sq. ft. 3,485 sq. ft. $119
2018-02-08 Single Family Traditional 5111 Kinglet Street Houston, TX 77035 $358,200 1,853 sq. ft. 8,712 sq. ft. $193
2018-02-08 Single Family Traditional 14258 Playa Bend Lane Houston, TX 77083 $260,950 1,990 sq. ft. 3,485 sq. ft. $131
2018-02-08 Single Family Traditional 14254 Playa Bend Lane Houston, TX 77083 $259,950 2,208 sq. ft. 3,485 sq. ft. $118
2018-02-08 Single Family Traditional 14262 Playa Bend Lane Houston, TX 77083 $259,950 2,208 sq. ft. 3,485 sq. ft. $118
2018-02-08 Single Family Traditional 13219 Robinglen Drive Houston, TX 77083 $175,000 2,792 sq. ft. 5,227 sq. ft. $63
2018-02-08 Single Family French; Traditional 1422 Brooklake Drive Houston, TX 77077 $399,000 3,390 sq. ft. 9,583 sq. ft. $118
2018-02-08 Single Family Ranch 11814 Rowan Lane Houston, TX 77072 $150,000 1,664 sq. ft. 6,970 sq. ft. $90
2018-02-08 Single Family Contemporary/Modern 10327 Burgoyne Road Houston, TX 77042 $468,973 2,271 sq. ft. 6,534 sq. ft. $207
2018-02-07 Single Family Traditional 13511 Broadmeadow Lane Houston, TX 77077 $480,000 2,832 sq. ft. 3,920 sq. ft. $169
2018-02-07 Single Family Traditional 10718 Cranbrook Road Houston, TX 77042 $489,900 2,541 sq. ft. 10,454 sq. ft. $193
2018-02-07 Single Family Traditional 14535 River Forest Drive Houston, TX 77079 $399,000 2,407 sq. ft. 7,841 sq. ft. $166
2018-02-07 Single Family Traditional 4226 Regency Drive Houston, TX 77045 $100,000 1,607 sq. ft. 9,583 sq. ft. $62
2018-02-07 Single Family Ranch; Traditional 4521 Waycross Drive Houston, TX 77035 $375,000 1,958 sq. ft. 8,276 sq. ft. $192
2018-02-07 Single Family Traditional 2923 Meadowgrass Lane Houston, TX 77082 $155,000 2,011 sq. ft. 3,920 sq. ft. $77
2018-02-07 Single Family Traditional 5931 Reamer Street Houston, TX 77074 $249,000 1,850 sq. ft. 7,841 sq. ft. $135
2018-02-07 Single Family Traditional 14010 Briarhills Parkway Houston, TX 77077 $190,000 1,968 sq. ft. 5,663 sq. ft. $97
2018-02-07 Single Family Traditional 12403 Dunlap Street Houston, TX 77035 $329,000 2,400 sq. ft. 15,682 sq. ft. $137
2018-02-07 Single Family Traditional 7887 Kendalia Drive Houston, TX 77036 $110,000 1,301 sq. ft. 1,742 sq. ft. $85
2018-02-07 Single Family Traditional 5762 Fontenelle Drive Houston, TX 77035 $199,000 1,789 sq. ft. 8,712 sq. ft. $111
2018-02-07 Single Family Traditional 8110 Braesview Lane Houston, TX 77071 $259,500 2,164 sq. ft. 8,712 sq. ft. $120
2018-02-07 Single Family Contemporary/Modern 5522 Belrose Drive Houston, TX 77035 $440,000 2,724 sq. ft. 8,276 sq. ft. $162
2018-02-07 Single Family Colonial 14859 Perthshire Road Houston, TX 77079 $429,000 2,762 sq. ft. 8,712 sq. ft. $155
2018-02-07 Single Family Traditional 15327 Mira Vista Drive Houston, TX 77083 $160,000 2,213 sq. ft. 7,841 sq. ft. $72
2018-02-07 Single Family Traditional 1503 Warwickshire Drive Houston, TX 77077 $470,000 3,172 sq. ft. 10,890 sq. ft. $148
2018-02-06 Single Family Contemporary/Modern 12716 Hill Branch Drive Houston, TX 77082 $145,000 1,863 sq. ft. 4,792 sq. ft. $78
2018-02-06 Single Family Ranch 6118 Bankside Drive Houston, TX 77096 $315,000 3,158 sq. ft. 10,019 sq. ft. $100
2018-02-06 Single Family Traditional 7507 Barberton Drive Houston, TX 77036 $248,000 1,648 sq. ft. 9,148 sq. ft. $150
2018-02-06 Single Family Traditional 3107 Towering Oak Street Houston, TX 77082 $240,000 2,177 sq. ft. 8,276 sq. ft. $110
2018-02-06 Single Family Colonial; Ranch; Traditional 1719 Briarmead Drive Houston, TX 77057 $379,000 3,044 sq. ft. 8,712 sq. ft. $125
2018-02-06 Single Family Traditional 11927 Atwell Drive Houston, TX 77035 $247,500 2,035 sq. ft. 8,276 sq. ft. $122
2018-02-06 Single Family Traditional 12323 Longbrook Drive Houston, TX 77099 $165,000 1,725 sq. ft. 11,761 sq. ft. $96
2018-02-06 Single Family Traditional 11118 Atwell Drive Houston, TX 77096 $389,900 2,076 sq. ft. 9,148 sq. ft. $188
2018-02-06 Single Family Contemporary/Modern 8206 Cliffshire Court Houston, TX 77083 $279,999 3,318 sq. ft. 7,405 sq. ft. $84
2018-02-06 Single Family Traditional 10106 Holly Chase Drive Houston, TX 77042 $399,900 3,120 sq. ft. 2,178 sq. ft. $128
2018-02-06 Single Family Traditional 18119 Somerset Knolls Houston, TX 77094 $299,000 1,933 sq. ft. 6,534 sq. ft. $155
2018-02-06 Single Family Contemporary/Modern 15114 Kingsbridge Way Houston, TX 77083 $210,000 2,098 sq. ft. $100
2018-02-06 Single Family Traditional 10622 Ashcroft Drive Houston, TX 77096 $425,000 2,238 sq. ft. 9,583 sq. ft. $190
2018-02-06 Single Family Traditional 2826 Halcyon Time Trl Blank Houston, TX 77045 $239,900 2,640 sq. ft. 7,405 sq. ft. $91
2018-02-06 Single Family Contemporary/Modern 5710 Valkeith Drive Houston, TX 77096 $449,000 2,418 sq. ft. 8,712 sq. ft. $186
2018-02-06 Single Family Contemporary/Modern 15318 Paseo Del Rey Drive Houston, TX 77083 $175,000 2,762 sq. ft. 8,276 sq. ft. $63
2018-02-06 Single Family Traditional 8219 Tamayo Drive Houston, TX 77083 $198,000 1,962 sq. ft. 6,098 sq. ft. $101
2018-02-06 Single Family Traditional 15319 Mondrian Drive Houston, TX 77083 $134,900 1,488 sq. ft. $91
2018-02-06 Single Family Traditional 303 Blue Willow Drive Houston, TX 77042 $379,900 2,474 sq. ft. 13,939 sq. ft. $154
2018-02-05 Single Family Split Level; Traditional 6819 Great Oaks Shadow Drive Houston, TX 77083 $210,000 2,092 sq. ft. 5,663 sq. ft. $100
2018-02-05 Single Family Traditional 11611 Cedar Creek Drive Houston, TX 77077 $309,990 2,128 sq. ft. 7,841 sq. ft. $146
2018-02-05 Single Family Ranch; Traditional 6014 Benning Drive Houston, TX 77096 $469,900 2,161 sq. ft. 7,841 sq. ft. $217
2018-02-05 Single Family Contemporary/Modern 5206 Braeswood Boulevard Houston, TX 77096 $339,000 3,231 sq. ft. 12,632 sq. ft. $105
2018-02-05 Single Family Traditional 5610 Ludington Drive Houston, TX 77035 $172,500 1,850 sq. ft. 8,276 sq. ft. $93
2018-02-05 Single Family Other Style 11726 Highgrove Drive Houston, TX 77077 $385,000 2,461 sq. ft. 8,712 sq. ft. $156
2018-02-05 Single Family Traditional 8718 Rylander Circle Houston, TX 77071 $139,900 1,449 sq. ft. 3,485 sq. ft. $97
2018-02-05 Single Family Traditional 12826 Sandri Lane Houston, TX 77077 $249,900 1,991 sq. ft. 6,098 sq. ft. $126
2018-02-05 Single Family Contemporary/Modern 3330 Overcross Drive Houston, TX 77045 $115,000 1,099 sq. ft. 5,663 sq. ft. $105
2018-02-05 Single Family Traditional 13514 Quetzal Lane Houston, TX 77083 $174,900 2,483 sq. ft. 5,227 sq. ft. $70
2018-02-05 Single Family Traditional 5910 Mcknight Street Houston, TX 77035 $299,999 2,064 sq. ft. 8,276 sq. ft. $145
2018-02-04 Single Family Traditional 5323 Dumfries Drive Houston, TX 77096 $475,000 2,323 sq. ft. 9,148 sq. ft. $204
2018-02-04 Single Family Traditional 6127 Lymbar Drive Houston, TX 77096 $365,000 2,304 sq. ft. 9,148 sq. ft. $158
2018-02-04 Single Family Traditional 13807 Overbrook Lane Houston, TX 77077 $255,000 2,024 sq. ft. 6,970 sq. ft. $126
2018-02-04 Single Family Traditional 9622 Airport Boulevard Houston, TX 77031 $150,000 1,918 sq. ft. 8,276 sq. ft. $78
2018-02-04 Single Family Traditional 15711 Danford Drive Houston, TX 77053 $159,900 2,147 sq. ft. 9,148 sq. ft. $74
2018-02-04 Single Family Traditional 14271 Pointa Vera Drive Houston, TX 77083 $249,000 2,083 sq. ft. 3,920 sq. ft. $120
2018-02-03 Single Family Contemporary/Modern 2303 Gray Falls Drive Houston, TX 77077 $343,000 2,043 sq. ft. 6,534 sq. ft. $168
2018-02-03 Single Family Traditional 6214 Shadow Crest Street Houston, TX 77074 $173,000 1,774 sq. ft. 7,841 sq. ft. $98
2018-02-03 Single Family Traditional 15034 Rock Knoll Drive Houston, TX 77083 $337,900 3,391 sq. ft. 13,939 sq. ft. $100
2018-02-03 Single Family Traditional 6215 Ridgecreek Drive Houston, TX 77053 $154,900 1,876 sq. ft. 6,970 sq. ft. $83
2018-02-03 Single Family Traditional 15422 Lynford Crest Drive Houston, TX 77083 $220,000 2,920 sq. ft. 6,098 sq. ft. $75
2018-02-03 Single Family Contemporary/Modern 2211 Gray Falls Drive Houston, TX 77077 $274,900 1,834 sq. ft. 6,098 sq. ft. $150
2018-02-03 Single Family Traditional 14718 Honey Lane Houston, TX 77085 $145,000 1,728 sq. ft. 7,841 sq. ft. $84
2018-02-03 Single Family Contemporary/Modern 1371 Beaujolais Lane Houston, TX 77077 $479,000 2,410 sq. ft. 6,970 sq. ft. $199
2018-02-03 Single Family Traditional 3227 Ashfield Drive Houston, TX 77082 $236,000 2,709 sq. ft. 7,405 sq. ft. $87
2018-02-03 Single Family Traditional 2227 Hickory Lawn Drive Houston, TX 77077 $299,900 2,360 sq. ft. 8,712 sq. ft. $127
2018-02-03 Single Family Traditional 6206 Westbranch Drive Houston, TX 77072 $169,000 1,350 sq. ft. 6,970 sq. ft. $125
2018-02-03 Single Family Traditional 11246 Hazen Houston, TX 77072 $169,000 1,479 sq. ft. $114
2018-02-03 Single Family Traditional 11726 Ridgewood Circle Houston, TX 77071 $167,200 1,771 sq. ft. 6,970 sq. ft. $94
2018-02-02 Single Family Traditional 9307 Braes Bayou Houston, TX 77074 $274,900 2,529 sq. ft. 12,197 sq. ft. $109
2018-02-02 Single Family Traditional 4431 Osby Drive Houston, TX 77096 $360,000 3,534 sq. ft. 10,019 sq. ft. $102
2018-02-02 Single Family Traditional 15311 Rio Plaza Drive Houston, TX 77083 $170,000 2,208 sq. ft. 8,276 sq. ft. $77
2018-02-02 Single Family Traditional 5773 Indian Circle Houston, TX 77057 $469,000 3,581 sq. ft. 4,792 sq. ft. $131
2018-02-02 Single Family Traditional 5047 Wigton Drive Houston, TX 77096 $329,500 2,025 sq. ft. 9,583 sq. ft. $163
2018-02-02 Single Family Contemporary/Modern; Ranch 4618 Redstart Street Houston, TX 77035 $380,000 1,532 sq. ft. 8,276 sq. ft. $248
2018-02-02 Single Family Colonial 14223 Kellywood Lane Houston, TX 77079 $450,000 3,162 sq. ft. 9,148 sq. ft. $142
2018-02-02 Single Family Other Style 9504 London Bridge Station Houston, TX 77045 $474,900 2,976 sq. ft. $160
2018-02-02 Single Family Other Style 2017 Covent Garden Station Houston, TX 77045 $479,900 2,583 sq. ft. $186
2018-02-02 Single Family Traditional 10106 Green Tree Road Houston, TX 77042 $499,000 2,870 sq. ft. 13,939 sq. ft. $174
2018-02-02 Single Family French 5323 Queensloch Drive Houston, TX 77096 $374,000 3,266 sq. ft. 9,583 sq. ft. $115
2018-02-02 Single Family Traditional 10318 Willowgrove Drive Houston, TX 77035 $339,000 3,399 sq. ft. 11,761 sq. ft. $100
2018-02-02 Single Family Traditional 14514 Essendine Lane Houston, TX 77045 $109,000 1,049 sq. ft. 6,098 sq. ft. $104
2018-02-02 Single Family Ranch 6143 Birdwood Road Houston, TX 77074 $169,000 1,068 sq. ft. 7,841 sq. ft. $158
2018-02-02 Single Family Traditional 8507 Brompton Place Drive Houston, TX 77083 $170,000 1,589 sq. ft. 6,098 sq. ft. $107
2018-02-02 Single Family Traditional 1110 Gardencrest Lane Houston, TX 77077 $475,000 3,081 sq. ft. 4,356 sq. ft. $154
2018-02-02 Single Family Ranch 16218 Pasadero Drive Houston, TX 77083 $179,900 2,004 sq. ft. 6,534 sq. ft. $90
2018-02-02 Single Family Traditional 7727 Meadowvale Drive Houston, TX 77063 $455,000 2,226 sq. ft. 9,583 sq. ft. $204
2018-02-02 Single Family Ranch; Traditional 4730 Omeara Drive Houston, TX 77035 $425,000 2,082 sq. ft. 10,019 sq. ft. $204
2018-02-02 Single Family Ranch; Traditional 5322 Carew Houston, TX 77096 $330,000 1,332 sq. ft. 7,841 sq. ft. $248
2018-02-02 Single Family Traditional 5215 Carew Street Houston, TX 77096 $349,900 1,967 sq. ft. 8,276 sq. ft. $178
2018-02-02 Single Family Traditional 11302 Ella Lee Lane Houston, TX 77077 $349,900 2,434 sq. ft. 13,504 sq. ft. $144
2018-02-02 Single Family Traditional 6331 Pouter Drive Houston, TX 77083 $1,300 1,837 sq. ft. 5,227 sq. ft. $1
2018-02-02 Single Family Traditional 906 Ashford Parkway Houston, TX 77077 $419,900 2,621 sq. ft. 11,326 sq. ft. $160
2018-02-01 Single Family Traditional 9647 Fairdale Lane Houston, TX 77063 $329,900 1,682 sq. ft. 12,197 sq. ft. $196
2018-02-01 Single Family Ranch 5215 Grape Street Houston, TX 77096 $465,000 2,062 sq. ft. 7,841 sq. ft. $226
2018-02-01 Single Family Ranch 5810 Warm Springs Road Houston, TX 77035 $349,000 2,164 sq. ft. 8,276 sq. ft. $161
2018-02-01 Single Family Traditional 12407 Shadowvista Drive Houston, TX 77082 $250,000 2,090 sq. ft. 6,534 sq. ft. $120
2018-02-01 Single Family Colonial 2127 Blue Willow Drive Houston, TX 77042 $347,500 2,070 sq. ft. 12,197 sq. ft. $168
2018-02-01 Single Family Traditional 1310 Rosemeadow Drive Houston, TX 77094 $370,000 2,871 sq. ft. 8,712 sq. ft. $129
2018-02-01 Single Family Traditional 7502 Tremendo Drive Houston, TX 77083 $155,000 1,382 sq. ft. 6,098 sq. ft. $112
2018-02-01 Single Family Traditional 5407 Rutherglenn Drive Houston, TX 77096 $429,000 2,342 sq. ft. 8,276 sq. ft. $183
2018-02-01 Single Family Traditional 13042 Hollow Brook Drive Houston, TX 77082 $299,989 3,480 sq. ft. 9,583 sq. ft. $86
2018-02-01 Single Family Traditional 12526 Westerley Lane Houston, TX 77077 $320,000 2,964 sq. ft. 13,939 sq. ft. $108
2018-02-01 Single Family Traditional 11314 Montverde Lane Houston, TX 77099 $150,000 1,611 sq. ft. 7,841 sq. ft. $93
2018-02-01 Single Family Traditional 5846 Braesheather Drive Houston, TX 77096 $424,900 2,462 sq. ft. 8,276 sq. ft. $173
2018-02-01 Single Family Traditional 9623 Windswept Lane Houston, TX 77063 $274,900 1,542 sq. ft. 6,970 sq. ft. $178
2018-02-01 Single Family Contemporary/Modern 5827 Southminster Drive Houston, TX 77035 $214,900 1,404 sq. ft. 8,276 sq. ft. $153
2018-02-01 Single Family Traditional 14934 Kimberley Lane Houston, TX 77079 $385,000 2,263 sq. ft. 10,019 sq. ft. $170
2018-02-01 Single Family Traditional 6002 Beaudry Drive Houston, TX 77035 $299,000 2,045 sq. ft. 8,276 sq. ft. $146
2018-02-01 Single Family Contemporary/Modern; Traditional 9502 Tree Sparrow Lane Houston, TX 77083 $230,000 2,439 sq. ft. 10,454 sq. ft. $94
2018-02-01 Single Family Traditional 10010 Bayou Glen Road Houston, TX 77042 $425,000 2,368 sq. ft. 11,761 sq. ft. $179
2018-02-01 Single Family Traditional 11319 Gaymoor Drive Houston, TX 77035 $339,500 1,907 sq. ft. 9,583 sq. ft. $178
2018-01-31 Single Family Other Style 13203 Gaby Virbo Drive Houston, TX 77083 $185,000 3,176 sq. ft. 6,970 sq. ft. $58
2018-01-31 Single Family Contemporary/Modern 2330 Binley Drive Houston, TX 77077 $349,900 2,700 sq. ft. 10,454 sq. ft. $130
2018-01-31 Single Family Traditional 11518 Piping Rock Drive Houston, TX 77077 $315,000 2,081 sq. ft. 8,276 sq. ft. $151
2018-01-31 Single Family Traditional 13167 Bellaire Estates Drive Houston, TX 77072 $195,000 2,299 sq. ft. 2,614 sq. ft. $85
2018-01-31 Single Family Traditional 5639 Indigo Street Houston, TX 77096 $415,000 2,125 sq. ft. 8,712 sq. ft. $195
2018-01-31 Single Family Traditional 9738 Braesmont Drive Houston, TX 77096 $344,900 3,205 sq. ft. 9,583 sq. ft. $108
2018-01-31 Single Family Traditional 12566 Westerley Lane Houston, TX 77077 $415,000 2,717 sq. ft. 12,197 sq. ft. $153
2018-01-31 Single Family Traditional 2002 Round Lake Drive Houston, TX 77077 $330,000 1,765 sq. ft. 9,583 sq. ft. $187
2018-01-31 Single Family Spanish; Traditional 12031 Sugar Springs Drive Houston, TX 77077 $315,000 2,373 sq. ft. 10,019 sq. ft. $133
2018-01-31 Single Family Ranch 5403 Cheena Drive Houston, TX 77096 $319,000 2,198 sq. ft. 10,019 sq. ft. $145
2018-01-31 Single Family Traditional 7902 Meadowbriar Lane Houston, TX 77063 $390,000 2,916 sq. ft. 9,583 sq. ft. $134
2018-01-31 Single Family Traditional 13231 Chipman Glen Drive Houston, TX 77082 $180,000 1,946 sq. ft. 8,276 sq. ft. $92
2018-01-31 Single Family Traditional 9203 Landsdowne Drive Houston, TX 77096 $210,000 2,073 sq. ft. 9,148 sq. ft. $101
2018-01-31 Single Family Traditional 12110 Ella Lee Lane Houston, TX 77077 $339,000 2,349 sq. ft. 7,405 sq. ft. $144
2018-01-31 Single Family Contemporary/Modern; Traditional 946 Coachlight Drive Houston, TX 77077 $360,000 2,344 sq. ft. 5,663 sq. ft. $154
2018-01-31 Single Family Traditional 9607 Petersham Drive Houston, TX 77031 $189,000 2,012 sq. ft. 10,019 sq. ft. $94
2018-01-31 Single Family Traditional 5934 Belrose Drive Houston, TX 77035 $275,000 2,385 sq. ft. 14,810 sq. ft. $115
2018-01-31 Single Family Traditional 5814 Queensloch Drive Houston, TX 77096 $219,000 2,177 sq. ft. 11,326 sq. ft. $101
2018-01-31 Single Family Traditional 10806 Braewick Drive Houston, TX 77096 $225,000 1,635 sq. ft. 8,276 sq. ft. $138
2018-01-31 Single Family Traditional 12511 Olympia Drive Houston, TX 77077 $465,000 3,760 sq. ft. 6,970 sq. ft. $124
2018-01-31 Single Family Traditional 6834 San Remo Drive Houston, TX 77083 $190,000 2,696 sq. ft. 10,454 sq. ft. $70
2018-01-31 Single Family Ranch 4818 Mcdermed Drive Houston, TX 77035 $465,000 2,374 sq. ft. 8,276 sq. ft. $196
2018-01-30 Single Family Traditional 15618 Barbarossa Drive Houston, TX 77083 $159,000 1,766 sq. ft. $90
2018-01-30 Single Family Colonial; English; Traditional 14603 Oak Bend Drive Houston, TX 77079 $365,000 2,403 sq. ft. 10,454 sq. ft. $152
2018-01-30 Single Family Traditional 4926 Yarwell Drive Houston, TX 77096 $349,000 2,242 sq. ft. 9,148 sq. ft. $156
2018-01-30 Single Family Ranch 6022 Duxbury Street Houston, TX 77035 $249,000 1,460 sq. ft. 8,712 sq. ft. $171
2018-01-30 Single Family Traditional 1547 Orchard Park Drive Houston, TX 77077 $430,000 2,258 sq. ft. 9,148 sq. ft. $190
2018-01-30 Single Family Traditional 13910 Charlton Way Drive Houston, TX 77077 $390,000 2,247 sq. ft. 5,663 sq. ft. $174
2018-01-30 Single Family Traditional 14230 Glasgow Place Houston, TX 77077 $430,000 2,384 sq. ft. 7,841 sq. ft. $180
2018-01-30 Single Family Traditional 14611 Bramblewood Drive Houston, TX 77079 $349,000 2,816 sq. ft. 8,276 sq. ft. $124
2018-01-30 Single Family Traditional 8511 Westknoll Lane Houston, TX 77072 $190,000 2,658 sq. ft. 4,356 sq. ft. $71
2018-01-30 Single Family Traditional 5915 Reamer Street Houston, TX 77074 $255,000 1,782 sq. ft. 7,841 sq. ft. $143
2018-01-30 Single Family Traditional 15531 Schumann Lane Houston, TX 77083 $165,000 1,801 sq. ft. 5,227 sq. ft. $92
2018-01-30 Single Family Contemporary/Modern; Traditional 5738 Cerritos Drive Houston, TX 77035 $339,400 1,837 sq. ft. 8,712 sq. ft. $185
2018-01-30 Single Family Traditional 218 Briar Hill Drive Houston, TX 77042 $610,000 2,368 sq. ft. 16,988 sq. ft. $258
2018-01-30 Single Family Traditional 1902 Hickory Lawn Drive Houston, TX 77077 $228,000 2,182 sq. ft. 7,405 sq. ft. $104
2018-01-30 Single Family Traditional 7410 La Place Drive Houston, TX 77083 $159,999 1,228 sq. ft. 5,663 sq. ft. $130
2018-01-30 Single Family Contemporary/Modern 16326 Angel Island Lane Houston, TX 77053 $175,000 2,128 sq. ft. 5,227 sq. ft. $82
2018-01-29 Single Family Traditional 19711 Hollywind Circle Houston, TX 77094 $504,000 3,680 sq. ft. 10,454 sq. ft. $137
2018-01-29 Single Family Contemporary/Modern 7902 Candlegreen Lane Houston, TX 77071 $95,000 2,249 sq. ft. 6,970 sq. ft. $42
2018-01-29 Single Family Mediterranean 3335 Chartreuse Way Houston, TX 77082 $995,000 5,201 sq. ft. 9,148 sq. ft. $191
2018-01-29 Single Family Traditional 12711 Old Oaks Drive Houston, TX 77024 $625,000 2,780 sq. ft. 10,454 sq. ft. $225
2018-01-29 Single Family Traditional 7011 Augustine Drive Houston, TX 77036 $195,000 1,934 sq. ft. 8,712 sq. ft. $101
2018-01-29 Single Family Traditional 12106 Hillcroft Street Houston, TX 77035 $249,900 1,647 sq. ft. 9,148 sq. ft. $152
2018-01-29 Single Family Ranch 2910 Westerland Dr Houston, TX 77063 $1,895 1,527 sq. ft. $1
2018-01-29 Single Family Traditional 2807 Crest Park Drive Houston, TX 77082 $132,000 2,078 sq. ft. 7,405 sq. ft. $64
2018-01-29 Single Family Contemporary/Modern 353 Westminster Drive Houston, TX 77024 $1,400,000 3,473 sq. ft. 42,253 sq. ft. $403
2018-01-29 Single Family Traditional 14622 Bramblewood Drive Houston, TX 77079 $359,000 2,649 sq. ft. 9,148 sq. ft. $136
2018-01-29 Single Family Traditional 5203 Beechnut Street Houston, TX 77096 $1,190,000 4,319 sq. ft. 10,454 sq. ft. $276
2018-01-29 Single Family Traditional 5360 Spring Park Street Houston, TX 77056 $4,950,000 5,140 sq. ft. 59,677 sq. ft. $963
2018-01-29 Single Family Traditional 1111 Briar Bayou Drive Houston, TX 77077 $325,000 2,357 sq. ft. 25,700 sq. ft. $138
2018-01-29 Single Family Traditional 5722 Mason Oaks Houston, TX 77085 $184,990 1,768 sq. ft. 13,068 sq. ft. $105
2018-01-29 Single Family Mediterranean 1134 Villa Bergamo Court Houston, TX 77094 $650,000 3,480 sq. ft. 6,970 sq. ft. $187
2018-01-29 Single Family Traditional 14723 Kimberley Lane Houston, TX 77079 $649,900 3,238 sq. ft. 8,712 sq. ft. $201
2018-01-29 Single Family Traditional 9018 Landsdowne Drive Houston, TX 77096 $340,000 1,686 sq. ft. 8,276 sq. ft. $202
2018-01-29 Single Family Traditional 10018 Cliffwood Drive Houston, TX 77035 $235,000 2,361 sq. ft. 10,019 sq. ft. $100
2018-01-29 Single Family Contemporary/Modern; Ranch 5722 Cheltenham Drive Houston, TX 77096 $329,900 1,873 sq. ft. 8,276 sq. ft. $176
2018-01-29 Single Family Traditional 8827 Petersburg Lane Houston, TX 77083 $199,500 1,962 sq. ft. 6,098 sq. ft. $102
2018-01-29 Single Family Traditional 3706 Ashford Villa Lane Houston, TX 77082 $159,900 1,448 sq. ft. 2,614 sq. ft. $110
2018-01-29 Single Family Traditional 5801 Birdwood Road Houston, TX 77074 $155,000 1,581 sq. ft. 6,970 sq. ft. $98
2018-01-29 Single Family Traditional 11703 Glenwolde Drive Houston, TX 77099 $163,500 2,006 sq. ft. 6,534 sq. ft. $82
2018-01-29 Single Family Traditional 5658 Ludington Drive Houston, TX 77035 $179,900 1,644 sq. ft. 6,098 sq. ft. $109
2018-01-29 Single Family Ranch; Traditional 9607 Cliffwood Drive Houston, TX 77096 $298,800 2,900 sq. ft. 11,761 sq. ft. $103
2018-01-28 Single Family Traditional 10634 Wickersham Lane Houston, TX 77042 $329,000 1,881 sq. ft. 8,276 sq. ft. $175
2018-01-28 Single Family Traditional 8430 Bellamy Lane Houston, TX 77083 $199,000 2,080 sq. ft. 5,227 sq. ft. $96
2018-01-28 Single Family Traditional 2419 Briarlee Drive Houston, TX 77077 $264,750 2,068 sq. ft. 9,148 sq. ft. $128
2018-01-28 Single Family Traditional 12654 Ashford River Houston, TX 77072 $175,000 1,414 sq. ft. 3,485 sq. ft. $124
2018-01-28 Single Family Traditional 16319 La Luna Houston, TX 77083 $135,000 1,158 sq. ft. 5,663 sq. ft. $117
2018-01-28 Single Family Traditional 8827 Diamond Lake Lane Houston, TX 77083 $240,000 2,606 sq. ft. 7,405 sq. ft. $92
2018-01-28 Single Family Traditional 5135 Braesheather Drive Houston, TX 77096 $389,000 4,942 sq. ft. 15,682 sq. ft. $79
2018-01-27 Single Family Contemporary/Modern 303 Briarpark Drive Houston, TX 77042 $499,000 4,364 sq. ft. 20,473 sq. ft. $114
2018-01-27 Single Family Traditional 5827 Ludington Drive Houston, TX 77035 $185,500 1,488 sq. ft. 10,454 sq. ft. $125
2018-01-27 Single Family Traditional 6031 Nodaway Creek Court Houston, TX 77085 $211,990 1,705 sq. ft. 10,019 sq. ft. $124
2018-01-27 Single Family Contemporary/Modern 106 Cove Creek Lane Houston, TX 77042 $498,900 3,320 sq. ft. 13,504 sq. ft. $150
2018-01-27 Single Family Traditional 327 Electra Drive Houston, TX 77024 $848,000 3,248 sq. ft. 27,007 sq. ft. $261
2018-01-27 Single Family Traditional 18054 Somerset Knoll Houston, TX 77094 $375,000 3,009 sq. ft. 6,970 sq. ft. $125
2018-01-27 Single Family Traditional 11203 Marseilles Lane Houston, TX 77082 $679,000 3,718 sq. ft. 8,712 sq. ft. $183
2018-01-27 Single Family Traditional 16810 Dunsford Court Houston, TX 77083 $205,000 1,962 sq. ft. 9,148 sq. ft. $104
2018-01-26 Single Family Traditional 12710 Old Oaks Drive Houston, TX 77024 $629,900 2,324 sq. ft. 12,197 sq. ft. $271
2018-01-26 Single Family Traditional 12714 Old Oaks Drive Houston, TX 77024 $649,900 2,602 sq. ft. 12,632 sq. ft. $250
2018-01-26 Single Family Traditional 13419 Beechgate Lane Houston, TX 77083 $240,000 2,940 sq. ft. 5,227 sq. ft. $82
2018-01-26 Single Family Traditional 11003 Overbrook Lane Houston, TX 77042 $439,000 2,674 sq. ft. 10,454 sq. ft. $164
2018-01-26 Single Family Traditional 10615 Bayou Glen Road Houston, TX 77042 $349,900 2,743 sq. ft. 8,712 sq. ft. $128
2018-01-26 Single Family Contemporary/Modern 6023 Stoney Brook Drive Houston, TX 77036 $299,000 2,298 sq. ft. 2,178 sq. ft. $130
2018-01-26 Single Family Traditional 10102 Willowgrove Drive Houston, TX 77035 $415,000 3,387 sq. ft. 11,326 sq. ft. $123
2018-01-26 Single Family Traditional 5535 Queensloch Drive Houston, TX 77096 $399,999 2,257 sq. ft. 9,148 sq. ft. $177
2018-01-26 Single Family Traditional 13210 Glenwyck Street Houston, TX 77045 $92,000 1,346 sq. ft. 7,841 sq. ft. $68
2018-01-26 Single Family Contemporary/Modern 323 Electra Drive Houston, TX 77024 $849,000 2,596 sq. ft. 33,106 sq. ft. $327
2018-01-26 Single Family Traditional 10322 Willowisp Drive Houston, TX 77035 $407,500 2,185 sq. ft. 8,276 sq. ft. $186
2018-01-26 Single Family Traditional 7611 Aimua Court Houston, TX 77083 $199,000 2,353 sq. ft. 5,663 sq. ft. $85
2018-01-26 Single Family Traditional 10202 Chevy Chase Drive Houston, TX 77042 $634,000 2,714 sq. ft. 10,019 sq. ft. $234
2018-01-26 Single Family Traditional 15007 Stoneyview Drive Houston, TX 77083 $239,000 2,653 sq. ft. 7,841 sq. ft. $90
2018-01-26 Single Family Contemporary/Modern; French 10934 Wickwild Street Houston, TX 77024 $4,999,000 10,321 sq. ft. 27,007 sq. ft. $484
2018-01-26 Single Family Traditional 11514 Coachfield Lane Houston, TX 77035 $145,000 1,748 sq. ft. 5,227 sq. ft. $83
2018-01-26 Single Family Ranch 7411 Burning Tree Drive Houston, TX 77036 $185,000 1,666 sq. ft. 7,405 sq. ft. $111
2018-01-26 Single Family Traditional 7423 San Benito Drive Houston, TX 77083 $128,900 1,175 sq. ft. 4,792 sq. ft. $110
2018-01-26 Single Family Contemporary/Modern 7527 Golden Star Drive Houston, TX 77083 $220,000 2,243 sq. ft. 4,356 sq. ft. $98
2018-01-26 Single Family Mediterranean 5559 Sugar Hill Drive Houston, TX 77056 $2,798,000 7,695 sq. ft. 16,553 sq. ft. $364
2018-01-26 Single Family Contemporary/Modern 14123 Langbourne Drive Houston, TX 77077 $259,000 1,838 sq. ft. 4,792 sq. ft. $141
2018-01-26 Single Family Traditional 14135 Kimberley Lane Houston, TX 77079 $398,000 1,850 sq. ft. 7,841 sq. ft. $215
2018-01-26 Single Family Traditional 14018 Carrigan Place Houston, TX 77083 $194,900 2,129 sq. ft. 6,098 sq. ft. $92
2018-01-26 Single Family Traditional 15323 Evergreen Place Drive Houston, TX 77083 $139,900 1,499 sq. ft. 6,098 sq. ft. $93
2018-01-26 Single Family Traditional 11822 Berry Place Drive Houston, TX 77071 $190,000 1,740 sq. ft. 4,356 sq. ft. $109
2018-01-26 Single Family English 803 Soboda Court Houston, TX 77079 $599,900 3,504 sq. ft. 10,454 sq. ft. $171
2018-01-25 Single Family Traditional 4414 Belle Park Drive Houston, TX 77072 $130,000 2,037 sq. ft. 11,761 sq. ft. $64
2018-01-25 Single Family Mediterranean 6222 Sutherland Sq Houston, TX 77081 $359,000 2,431 sq. ft. 2,614 sq. ft. $148
2018-01-25 Single Family Traditional 1565 Beaconshire Road Houston, TX 77077 $284,900 2,420 sq. ft. 4,792 sq. ft. $118
2018-01-25 Single Family Traditional 603 Blue Willow Drive Houston, TX 77042 $289,900 2,293 sq. ft. 8,712 sq. ft. $126
2018-01-25 Single Family Contemporary/Modern 12007 Ashurst Drive Houston, TX 77077 $295,000 2,246 sq. ft. 8,276 sq. ft. $131
2018-01-25 Single Family Contemporary/Modern; Traditional 17 Windermere Lane Houston, TX 77063 $1,495,000 5,229 sq. ft. 48,352 sq. ft. $286
2018-01-25 Single Family Traditional 5731 Arboles Drive Houston, TX 77035 $379,000 2,169 sq. ft. 9,148 sq. ft. $175
2018-01-25 Single Family Ranch; Traditional 8743 Rylander Circle Houston, TX 77071 $120,000 1,232 sq. ft. 3,920 sq. ft. $97
2018-01-25 Single Family Traditional 215 Maple Valley Road Houston, TX 77056 $2,749,000 6,905 sq. ft. 15,682 sq. ft. $398
2018-01-25 Single Family Traditional 10006 Piping Rock Lane Houston, TX 77042 $539,000 2,162 sq. ft. 8,712 sq. ft. $249
2018-01-25 Single Family Mediterranean 13307 Brentonwood Lane Houston, TX 77077 $649,000 3,920 sq. ft. 10,019 sq. ft. $166
2018-01-25 Single Family Traditional 5030 Glenmeadow Drive Houston, TX 77096 $345,000 2,676 sq. ft. 11,326 sq. ft. $129
2018-01-25 Single Family Ranch; Traditional 4417 Kinglet Street Houston, TX 77035 $359,900 1,995 sq. ft. 7,841 sq. ft. $180
2018-01-25 Single Family Colonial; Ranch 7 Warrenton Drive Houston, TX 77024 $800,000 2,690 sq. ft. 16,553 sq. ft. $297
2018-01-25 Single Family Contemporary/Modern; Traditional 423 Hollow Drive Houston, TX 77024 $1,200,000 3,900 sq. ft. 31,363 sq. ft. $308
2018-01-25 Single Family Traditional 14003 Woodthorpe Lane Houston, TX 77079 $1,295,000 4,439 sq. ft. 14,375 sq. ft. $292
2018-01-25 Single Family Traditional 11914 Waldemar Drive Houston, TX 77077 $268,000 1,836 sq. ft. 8,276 sq. ft. $146
2018-01-25 Single Family Traditional 135 Haversham Drive Houston, TX 77024 $1,599,000 4,775 sq. ft. 11,761 sq. ft. $335
2018-01-25 Single Family Mediterranean 5203 Fieldwood Drive Houston, TX 77056 $2,295,000 7,534 sq. ft. 13,068 sq. ft. $305
2018-01-25 Single Family Contemporary/Modern 12219 Piping Rock Drive Houston, TX 77077 $342,800 2,504 sq. ft. 8,276 sq. ft. $137
2018-01-25 Single Family Traditional 9707 Kit Street Houston, TX 77096 $239,900 2,375 sq. ft. 9,583 sq. ft. $101
2018-01-25 Single Family Traditional 5015 Kingfisher Drive Houston, TX 77035 $279,900 1,874 sq. ft. 7,841 sq. ft. $149
2018-01-25 Single Family Traditional 11402 Chestwood Drive Houston, TX 77024 $1,399,000 2,927 sq. ft. 19,166 sq. ft. $478
2018-01-25 Single Family Traditional 7114 Hendon Lane Houston, TX 77074 $230,000 1,944 sq. ft. 8,712 sq. ft. $118
2018-01-25 Single Family Traditional 3915 Heatherbloom Drive Houston, TX 77045 $149,900 1,749 sq. ft. 6,534 sq. ft. $86
2018-01-25 Single Family Traditional 34 Rivercrest Drive Houston, TX 77042 $2,399,000 8,797 sq. ft. 152,460 sq. ft. $273
2018-01-25 Single Family Traditional 12323 Burgoyne Drive Houston, TX 77077 $319,000 2,543 sq. ft. 8,712 sq. ft. $125
2018-01-25 Single Family Traditional 15318 El Padre Drive Houston, TX 77083 $217,000 2,744 sq. ft. 9,148 sq. ft. $79
2018-01-25 Single Family Traditional 7223 Colima Drive Houston, TX 77083 $145,000 1,188 sq. ft. 6,534 sq. ft. $122
2018-01-25 Single Family Traditional 12303 Broken Bough Drive Houston, TX 77024 $850,000 3,285 sq. ft. 11,326 sq. ft. $259
2018-01-25 Single Family Ranch; Victorian 5715 Warm Springs Road Houston, TX 77035 $369,900 1,897 sq. ft. 8,276 sq. ft. $195
2018-01-25 Single Family Traditional 10714 Inwood Dr Drive Houston, TX 77042 $279,900 1,756 sq. ft. 10,019 sq. ft. $159
2018-01-25 Single Family Traditional 435 Faust Lane Houston, TX 77024 $540,000 1,568 sq. ft. 8,276 sq. ft. $344
2018-01-25 Single Family Traditional 62 Blooming Grove Lane Houston, TX 77077 $775,000 3,677 sq. ft. 10,890 sq. ft. $211
2018-01-25 Single Family Mediterranean 18934 Camillo Court Houston, TX 77094 $1,189,000 4,041 sq. ft. 12,632 sq. ft. $294
2018-01-25 Single Family Traditional 12407 Perthshire Road Houston, TX 77024 $1,499,000 4,891 sq. ft. 8,712 sq. ft. $306
2018-01-25 Single Family Ranch 6007 Arboles Drive Houston, TX 77035 $235,000 2,024 sq. ft. 8,276 sq. ft. $116
2018-01-25 Single Family Traditional 1818 Berryfield Drive Houston, TX 77077 $364,900 3,308 sq. ft. 16,988 sq. ft. $110
2018-01-25 Single Family Split Level; Traditional; Victorian 6003 Valley Forge Drive Houston, TX 77057 $595,000 2,843 sq. ft. 3,920 sq. ft. $209
2018-01-24 Single Family Traditional 14526 Bramblewood Drive Houston, TX 77079 $325,000 2,155 sq. ft. 7,841 sq. ft. $151
2018-01-24 Single Family Traditional 5911 Beaudry Drive Houston, TX 77035 $299,900 2,060 sq. ft. 8,276 sq. ft. $146
2018-01-24 Single Family Traditional 5834 Ludington Drive Houston, TX 77035 $179,000 1,905 sq. ft. 7,405 sq. ft. $94
2018-01-24 Single Family Contemporary/Modern 2425 Nantucket Drive Houston, TX 77057 $839,999 4,091 sq. ft. 2,614 sq. ft. $205
2018-01-24 Single Family Traditional 9410 Fairdale Lane Houston, TX 77063 $239,900 1,967 sq. ft. 8,712 sq. ft. $122
2018-01-24 Single Family Traditional 12505 Corona Lane Houston, TX 77072 $94,900 1,412 sq. ft. 2,178 sq. ft. $67
2018-01-24 Single Family Traditional 12714 Cobblestone Drive Houston, TX 77024 $650,000 2,522 sq. ft. 9,583 sq. ft. $258
2018-01-24 Single Family Spanish 11 Liberty Bell Circle Houston, TX 77024 $2,375,000 3,590 sq. ft. 40,075 sq. ft. $662
2018-01-24 Single Family Contemporary/Modern 5510 Alanneil Houston, TX 77081 $777,000 3,270 sq. ft. 2,614 sq. ft. $238
2018-01-24 Single Family Georgian 439 Wilchester Boulevard Houston, TX 77079 $1,595,000 4,260 sq. ft. 13,504 sq. ft. $374
2018-01-24 Single Family Traditional 4902 Wigton Drive Houston, TX 77096 $330,000 2,450 sq. ft. 12,197 sq. ft. $135
2018-01-24 Single Family Ranch 14206 Wickersham Lane Houston, TX 77077 $235,000 1,767 sq. ft. 7,405 sq. ft. $133
2018-01-24 Single Family Ranch; Traditional 6131 Olympia Drive Houston, TX 77057 $949,000 2,894 sq. ft. 7,841 sq. ft. $328
2018-01-24 Single Family Traditional 7526 Tanager Street Houston, TX 77074 $229,900 2,540 sq. ft. 7,841 sq. ft. $91
2018-01-24 Single Family Ranch 5723 Arboles Drive Houston, TX 77035 $199,000 1,835 sq. ft. 8,276 sq. ft. $108
2018-01-24 Single Family Colonial; Traditional 333 Sugarberry Circle Houston, TX 77024 $985,000 4,212 sq. ft. 3,485 sq. ft. $234
2018-01-24 Single Family Traditional 12827 Westella Drive Houston, TX 77077 $234,900 1,645 sq. ft. 7,841 sq. ft. $143
2018-01-24 Single Family Contemporary/Modern 7919 Ashford Trace Drive Houston, TX 77072 $248,000 2,199 sq. ft. 2,178 sq. ft. $113
2018-01-24 Single Family Traditional 11814 Triola Lane Houston, TX 77072 $169,900 1,620 sq. ft. 6,098 sq. ft. $105
2018-01-24 Single Family French 15807 Hidden Cove Houston, TX 77079 $580,000 3,797 sq. ft. 8,276 sq. ft. $153
2018-01-24 Single Family Traditional 6249 Overbrook Lane Houston, TX 77057 $799,999 1,898 sq. ft. 7,841 sq. ft. $422
2018-01-24 Single Family Ranch; Traditional 6134 Reamer Street Houston, TX 77074 $159,900 1,920 sq. ft. 11,761 sq. ft. $83
2018-01-24 Single Family Traditional 4007 Timber Falls Court Houston, TX 77082 $199,900 2,104 sq. ft. 7,405 sq. ft. $95
2018-01-24 Single Family Traditional 5947 Dumfries Drive Houston, TX 77096 $435,000 2,002 sq. ft. 8,276 sq. ft. $217
2018-01-23 Single Family Traditional 11914 Atwell Drive Houston, TX 77035 $175,000 1,850 sq. ft. 8,712 sq. ft. $95
2018-01-23 Single Family Traditional 5302 Meadow Lake Lane Houston, TX 77056 $925,000 3,031 sq. ft. 13,939 sq. ft. $305
2018-01-23 Single Family Traditional 5657 Bayou Glen Road Houston, TX 77056 $1,325,000 3,085 sq. ft. 14,375 sq. ft. $430
2018-01-23 Single Family Traditional 7619 Twin Hills Drive Houston, TX 77071 $275,000 2,611 sq. ft. 8,276 sq. ft. $105
2018-01-23 Single Family Contemporary/Modern 7547 Highmeadow Drive Houston, TX 77063 $385,000 2,777 sq. ft. 2,178 sq. ft. $139
2018-01-23 Single Family Traditional 8414 Braesview Lane Houston, TX 77071 $249,900 2,216 sq. ft. 8,712 sq. ft. $113
2018-01-23 Single Family Traditional 5946 Lattimer Drive Houston, TX 77035 $249,900 1,920 sq. ft. 8,276 sq. ft. $130
2018-01-23 Single Family Traditional 12426 Pinerock Lane Houston, TX 77024 $1,089,000 3,822 sq. ft. 12,197 sq. ft. $285
2018-01-23 Single Family Colonial; Traditional 1007 Crossroads Drive Houston, TX 77079 $339,000 3,756 sq. ft. 10,019 sq. ft. $90
2018-01-23 Single Family Traditional 14926 Honey Lane Houston, TX 77085 $209,900 2,099 sq. ft. 3,920 sq. ft. $100
2018-01-23 Single Family Traditional 12215 Rip Van Winkle Drive Houston, TX 77024 $759,000 3,208 sq. ft. 11,761 sq. ft. $237
2018-01-23 Single Family Ranch 10711 Shady River Drive Houston, TX 77042 $599,000 3,800 sq. ft. 31,363 sq. ft. $158
2018-01-23 Single Family Ranch 4930 Loch Lomond Drive Houston, TX 77096 $310,000 2,754 sq. ft. 10,890 sq. ft. $113
2018-01-23 Single Family Traditional 7150 Edgemoor Drive Houston, TX 77074 $182,000 1,537 sq. ft. 8,712 sq. ft. $118
2018-01-22 Single Family Mediterranean 5501 Grand Lake Street Street Houston, TX 77081 $1,475,000 4,980 sq. ft. 9,148 sq. ft. $296
2018-01-22 Single Family Traditional 5313 Pagewood Lane Houston, TX 77056 $875,000 3,629 sq. ft. 7,405 sq. ft. $241
2018-01-22 Single Family Traditional 5202 Bellfort Street Houston, TX 77035 $325,000 2,313 sq. ft. 11,761 sq. ft. $141
2018-01-22 Single Family Contemporary/Modern 12139 Ella Lee Lane Houston, TX 77077 $335,000 2,008 sq. ft. 7,841 sq. ft. $167
2018-01-22 Single Family Traditional 6615 Las Brisas Drive Houston, TX 77083 $185,500 2,291 sq. ft. 10,019 sq. ft. $81
2018-01-22 Single Family Ranch; Traditional 5648 Ella Lee Lane Houston, TX 77056 $999,000 2,622 sq. ft. 10,454 sq. ft. $381
2018-01-22 Single Family Traditional 2930 Dragonwick Drive Houston, TX 77045 $150,000 1,870 sq. ft. 8,276 sq. ft. $80
2018-01-22 Single Family Traditional 5663 Pine Street Houston, TX 77081 $230,000 2,116 sq. ft. 1,742 sq. ft. $109
2018-01-22 Single Family Traditional 850 Wilcrest Drive Houston, TX 77079 $450,000 2,541 sq. ft. 10,019 sq. ft. $177
2018-01-22 Single Family Traditional 19303 Foxtree Lane Houston, TX 77094 $650,000 4,293 sq. ft. $151
2018-01-22 Single Family Traditional 647 Diamond Leaf Lane Houston, TX 77079 $1,475,000 4,274 sq. ft. 10,890 sq. ft. $345
2018-01-22 Single Family French; Traditional 3607 St Tropez Houston, TX 77082 $1,495,000 5,754 sq. ft. 11,761 sq. ft. $260
2018-01-22 Single Family Traditional 519 Hunterwood Drive Houston, TX 77024 $1,995,000 4,634 sq. ft. 26,136 sq. ft. $431
2018-01-22 Single Family English 13127 Barryknoll Houston, TX 77079 $539,900 2,184 sq. ft. 6,970 sq. ft. $247
2018-01-22 Single Family Traditional 14923 Kimberley Lane Houston, TX 77079 $560,000 3,482 sq. ft. 9,148 sq. ft. $161
2018-01-22 Single Family Contemporary/Modern 16634 Ripple Ridge Drive Houston, TX 77053 $165,000 2,256 sq. ft. 6,534 sq. ft. $73
2018-01-22 Single Family Contemporary/Modern; Traditional 9107 Kalewood Drive Houston, TX 77099 $150,000 1,444 sq. ft. 4,356 sq. ft. $104
2018-01-22 Single Family Traditional 5750 Kuldell Drive Houston, TX 77096 $425,000 3,021 sq. ft. 8,712 sq. ft. $141
2018-01-22 Single Family Traditional 13415 Bishop Way Drive Houston, TX 77083 $172,900 1,790 sq. ft. 5,663 sq. ft. $97
2018-01-22 Single Family Traditional 4719 Nenana Drive Houston, TX 77035 $569,000 2,460 sq. ft. 12,632 sq. ft. $231
2018-01-21 Single Family Traditional 10302 Burgoyne Road Houston, TX 77042 $395,000 2,535 sq. ft. 5,663 sq. ft. $156
2018-01-21 Single Family Traditional 6119 Birdwood Road Houston, TX 77074 $163,900 1,284 sq. ft. 6,534 sq. ft. $128
2018-01-21 Single Family Traditional 13003 Thatcher Drive Houston, TX 77077 $270,000 2,693 sq. ft. 13,939 sq. ft. $100
2018-01-21 Single Family Traditional 3019 Bare Oak Street Houston, TX 77082 $299,000 3,341 sq. ft. 9,148 sq. ft. $89
2018-01-21 Single Family Traditional 5219 Queensloch Drive Houston, TX 77096 $400,000 2,792 sq. ft. 10,890 sq. ft. $143
2018-01-21 Single Family Traditional 13330 Olive Trail Houston, TX 77077 $389,000 2,716 sq. ft. 2,614 sq. ft. $143
2018-01-21 Single Family Traditional 13931 Leabrandon Lane Houston, TX 77045 $174,900 1,258 sq. ft. 4,792 sq. ft. $139
2018-01-20 Single Family Traditional 9419 Keegans Wood Drive Houston, TX 77083 $145,000 1,344 sq. ft. 6,098 sq. ft. $108
2018-01-20 Single Family Traditional 11614 Royal Oaks Crossing Houston, TX 77082 $445,000 3,074 sq. ft. 3,049 sq. ft. $145
2018-01-20 Single Family Ranch; Traditional 12919 Birchaven Lane Houston, TX 77072 $159,980 1,423 sq. ft. 4,356 sq. ft. $112
2018-01-20 Single Family Ranch 6031 Cerritos Drive Houston, TX 77035 $170,000 2,232 sq. ft. 9,583 sq. ft. $76
2018-01-20 Single Family Contemporary/Modern; Ranch 12510 Overcup Drive Houston, TX 77024 $2,000,000 5,617 sq. ft. 29,185 sq. ft. $356
2018-01-20 Single Family Traditional 12410 Piping Rock Drive Houston, TX 77077 $380,000 2,369 sq. ft. 7,841 sq. ft. $160
2018-01-20 Single Family Traditional 13643 Ortega Lane Houston, TX 77083 $219,000 2,466 sq. ft. 6,098 sq. ft. $89
2018-01-19 Single Family Traditional 13919 Leabrandon Lane Houston, TX 77045 $199,900 2,120 sq. ft. 4,792 sq. ft. $94
2018-01-19 Single Family Traditional 611 Rancho Bauer Drive Houston, TX 77079 $415,000 2,592 sq. ft. 10,019 sq. ft. $160
2018-01-19 Single Family Traditional 4626 Bryant Ridge Road Houston, TX 77053 $117,000 1,311 sq. ft. 5,663 sq. ft. $89
2018-01-19 Single Family Traditional 12114 Carriage Hill Drive Houston, TX 77077 $419,900 2,778 sq. ft. 8,712 sq. ft. $151
2018-01-19 Single Family Traditional 9115 Woodleigh Drive Houston, TX 77083 $219,000 2,057 sq. ft. 7,841 sq. ft. $106
2018-01-19 Single Family Traditional 2230 Woodland Park Drive Houston, TX 77077 $279,900 2,150 sq. ft. 7,405 sq. ft. $130
2018-01-19 Single Family Traditional 14118 Carolcrest Circle Houston, TX 77079 $450,000 2,089 sq. ft. 11,761 sq. ft. $215